EVRA/RIX METAR and TAF weather

Enter ICAO airport designator
Station Type Date Time Source
EVRA METAR 2019/12/11 15:20 UTC NOAA

EVRA 111520Z 17014KT CAVOK M01/M03 Q1015 R18/190095 NOSIG


Station Type Date Time Source
EVRA Decoded METAR 2019/12/11 15:20 UTC NOAA

Riga International Airport, Latvia (EVRA) 56-55N 023-58E
Dec 11, 2019 - 10:20 AM EST / 2019.12.11 1520 UTC
Wind: from the S (170 degrees) at 16 MPH (14 KT):0
Visibility: greater than 7 mile(s):0
Temperature: 30 F (-1 C)
Windchill: 19 F (-7 C):1
Dew Point: 26 F (-3 C)
Relative Humidity: 86%
Pressure (altimeter): 29.97 in. Hg (1015 hPa)
ob: EVRA 111520Z 17014KT CAVOK M01/M03 Q1015 R18/190095 NOSIG
cycle: 15

Station Type Date Time Source
EVRA TAF 2019/12/11 15:05 UTC NOAA

TAF EVRA 111401Z 1115/1215 17010KT CAVOK
TEMPO 1205/1215 BKN010

Example: see airport list